Time;durP1;ratioP1;P1;durP2;ratioP2;P2;SDS_P1;SDS_P2;PMS_P1;PMS_P2;Temp;Humidity;BMP_temperature;BMP_pressure;BME280_temperature;BME280_humidity;BME280_pressure;Samples;Min_cycle;Max_cycle;Signal;HPM_P1;HPM_P2
2021/05/03 00:01:45;;;;;;;1999.90;999.90;;;6.80;99.90;;;;;;5012904;28;20133;-96
2021/05/03 00:04:21;;;;;;;1999.90;999.90;;;6.70;99.90;;;;;;5014337;28;20062;-96
2021/05/03 00:06:54;;;;;;;1999.90;999.90;;;6.80;99.90;;;;;;5008821;28;20054;-96
2021/05/03 00:09:21;;;;;;;1999.90;999.90;;;6.80;99.90;;;;;;5006599;28;20381;-96
2021/05/03 00:11:49;;;;;;;1999.90;999.90;;;6.80;99.90;;;;;;5005987;28;20055;-96
2021/05/03 00:14:17;;;;;;;1999.90;999.90;;;6.70;99.90;;;;;;5006867;28;20224;-96
2021/05/03 00:16:45;;;;;;;1999.90;999.90;;;6.80;99.90;;;;;;5003942;28;20054;-95
2021/05/03 00:19:13;;;;;;;1999.90;999.90;;;6.80;99.90;;;;;;5004912;28;20065;-96
2021/05/03 00:21:40;;;;;;;1999.90;999.90;;;6.80;99.90;;;;;;5003483;28;20061;-96
2021/05/03 00:24:09;;;;;;;1999.90;999.90;;;6.80;99.90;;;;;;5004180;28;20585;-96
2021/05/03 00:26:37;;;;;;;1999.90;999.90;;;6.80;99.90;;;;;;5004715;28;20042;-96
2021/05/03 00:29:09;;;;;;;1999.90;999.90;;;6.80;99.90;;;;;;5015183;28;20062;-96
2021/05/03 00:31:45;;;;;;;1999.90;999.90;;;6.80;99.90;;;;;;5016471;28;20085;-96
2021/05/03 00:34:23;;;;;;;1999.90;999.90;;;6.80;99.90;;;;;;5017924;28;20046;-96
2021/05/03 00:37:01;;;;;;;1999.90;999.90;;;6.80;99.90;;;;;;5019275;28;20098;-96
2021/05/03 00:39:30;;;;;;;1999.90;999.90;;;6.80;99.90;;;;;;5019986;28;20054;-96
2021/05/03 00:42:05;;;;;;;1999.90;999.90;;;6.80;99.90;;;;;;5019635;28;20049;-96
2021/05/03 00:44:40;;;;;;;1999.90;999.90;;;6.80;99.90;;;;;;5020673;28;20034;-96
2021/05/03 00:53:12;;;;;;;1999.90;999.90;;;6.80;99.90;;;;;;5180678;23;20058;-96
2021/05/03 00:55:48;;;;;;;1999.90;999.90;;;6.80;99.90;;;;;;5001411;28;20039;-96
2021/05/03 00:58:24;;;;;;;1999.90;999.90;;;6.90;99.90;;;;;;5190376;23;20047;-96
2021/05/03 01:09:13;;;;;;;1999.90;999.90;;;7.00;99.90;;;;;;5186230;23;20066;-95
2021/05/03 01:11:44;;;;;;;1999.90;999.90;;;7.00;99.90;;;;;;5000959;28;20035;-95
2021/05/03 01:14:13;;;;;;;1999.90;999.90;;;7.00;99.90;;;;;;5000795;28;20042;-96
2021/05/03 01:16:41;;;;;;;1999.90;999.90;;;7.00;99.90;;;;;;5000419;28;20058;-95
2021/05/03 01:19:11;;;;;;;1999.90;999.90;;;7.00;99.90;;;;;;5000938;28;20090;-95
2021/05/03 01:21:39;;;;;;;1999.90;999.90;;;7.00;99.90;;;;;;5000600;28;20035;-96
2021/05/03 01:24:08;;;;;;;1999.90;999.90;;;7.00;99.90;;;;;;5000670;28;20043;-95
2021/05/03 01:26:35;;;;;;;1999.90;999.90;;;7.00;99.90;;;;;;5000698;28;20047;-94
2021/05/03 01:29:03;;;;;;;1999.90;999.90;;;7.10;99.90;;;;;;5000443;28;20090;-95
2021/05/03 01:31:30;;;;;;;1999.90;999.90;;;7.00;99.90;;;;;;5000273;28;20062;-95
2021/05/03 01:34:04;;;;;;;1999.90;999.90;;;7.00;99.90;;;;;;4994503;28;20054;-95
2021/05/03 01:36:31;;;;;;;1999.90;999.90;;;7.00;99.90;;;;;;4985128;28;20061;-94
2021/05/03 01:39:00;;;;;;;1999.90;999.90;;;7.10;99.90;;;;;;4982921;28;20085;-95
2021/05/03 01:41:27;;;;;;;1999.90;999.90;;;7.00;99.90;;;;;;4981889;28;20133;-95
2021/05/03 01:46:57;;;;;;;1999.90;999.90;;;7.10;99.90;;;;;;5009510;23;20109;-95
2021/05/03 01:49:29;;;;;;;1999.90;999.90;;;7.10;99.90;;;;;;4988412;28;20065;-95
2021/05/03 01:52:01;;;;;;;1999.90;999.90;;;7.10;99.90;;;;;;4988026;28;20095;-95
2021/05/03 01:54:33;;;;;;;1999.90;999.90;;;7.00;99.90;;;;;;4988795;28;20049;-94
2021/05/03 01:57:00;;;;;;;1999.90;999.90;;;7.00;99.90;;;;;;4984456;28;20053;-95
2021/05/03 01:59:33;;;;;;;1999.90;999.90;;;7.10;99.90;;;;;;4984467;28;20058;-96
2021/05/03 02:02:03;;;;;;;1999.90;999.90;;;7.00;99.90;;;;;;4982191;28;20050;-94
2021/05/03 02:04:34;;;;;;;1999.90;999.90;;;7.00;99.90;;;;;;4985357;28;20110;-95
2021/05/03 02:07:07;;;;;;;1999.90;999.90;;;7.00;99.90;;;;;;4986586;28;20051;-95
2021/05/03 02:12:31;;;;;;;1999.90;999.90;;;7.00;99.90;;;;;;5105831;23;20137;-96
2021/05/03 02:15:00;;;;;;;1999.90;999.90;;;7.00;99.90;;;;;;4989364;28;20074;-95
2021/05/03 02:17:28;;;;;;;1999.90;999.90;;;7.00;99.90;;;;;;4987842;28;20074;-95
2021/05/03 02:19:58;;;;;;;1999.90;999.90;;;7.00;99.90;;;;;;4990118;28;20058;-95
2021/05/03 02:22:27;;;;;;;1999.90;999.90;;;6.90;99.90;;;;;;4989828;28;20063;-95
2021/05/03 02:24:57;;;;;;;1999.90;999.90;;;6.90;99.90;;;;;;4986745;28;20062;-95
2021/05/03 02:27:26;;;;;;;1999.90;999.90;;;6.90;99.90;;;;;;4985180;28;20062;-95
2021/05/03 02:29:54;;;;;;;1999.90;999.90;;;6.90;99.90;;;;;;4986177;28;20058;-95
2021/05/03 02:32:22;;;;;;;1999.90;999.90;;;6.90;99.90;;;;;;4985600;28;20068;-96
2021/05/03 02:34:50;;;;;;;1999.90;999.90;;;6.90;99.90;;;;;;4986911;28;20059;-95
2021/05/03 02:37:21;;;;;;;1999.90;999.90;;;6.90;99.90;;;;;;4990897;28;20097;-95
2021/05/03 02:40:03;;;;;;;1999.90;999.90;;;6.90;99.90;;;;;;4992224;28;20046;-96
2021/05/03 02:42:32;;;;;;;1999.90;999.90;;;6.90;99.90;;;;;;4992773;28;20050;-95
2021/05/03 02:45:00;;;;;;;1999.90;999.90;;;6.80;99.90;;;;;;4980837;28;20133;-95
2021/05/03 02:47:28;;;;;;;1999.90;999.90;;;6.80;99.90;;;;;;4980595;28;20062;-95
2021/05/03 02:49:56;;;;;;;1999.90;999.90;;;6.90;99.90;;;;;;4987392;28;20081;-95
2021/05/03 02:52:23;;;;;;;1999.90;999.90;;;6.90;99.90;;;;;;4978351;28;20061;-96
2021/05/03 02:54:51;;;;;;;1999.90;999.90;;;6.80;99.90;;;;;;4979046;28;20138;-95
2021/05/03 02:57:18;;;;;;;1999.90;999.90;;;6.80;99.90;;;;;;4978000;28;20120;-94
2021/05/03 02:59:47;;;;;;;1999.90;999.90;;;6.80;99.90;;;;;;4979687;28;20062;-95
2021/05/03 03:02:16;;;;;;;1999.90;999.90;;;6.80;99.90;;;;;;4991045;28;20054;-95
2021/05/03 03:05:11;;;;;;;1999.90;999.90;;;6.70;99.90;;;;;;5247767;23;20078;-96
2021/05/03 03:07:42;;;;;;;1999.90;999.90;;;6.80;99.90;;;;;;4973046;28;20055;-95
2021/05/03 03:10:20;;;;;;;1999.90;999.90;;;6.80;99.90;;;;;;4972721;29;20110;-95
2021/05/03 03:13:11;;;;;;;1999.90;999.90;;;6.80;99.90;;;;;;4974945;28;20054;-96
2021/05/03 03:16:26;;;;;;;1999.90;999.90;;;6.80;99.90;;;;;;4975130;28;20059;-96
2021/05/03 03:19:04;;;;;;;1999.90;999.90;;;6.80;99.90;;;;;;4973280;28;20062;-96
2021/05/03 03:21:40;;;;;;;1999.90;999.90;;;6.80;99.90;;;;;;4975913;29;20071;-96
2021/05/03 03:24:18;;;;;;;1999.90;999.90;;;6.70;99.90;;;;;;4974899;29;20043;-96
2021/05/03 03:27:02;;;;;;;1999.90;999.90;;;6.70;99.90;;;;;;4975415;28;20055;-95
2021/05/03 03:29:35;;;;;;;1999.90;999.90;;;6.70;99.90;;;;;;4972761;28;20062;-96
2021/05/03 03:32:08;;;;;;;1999.90;999.90;;;6.80;99.90;;;;;;4975065;28;20055;-96
2021/05/03 03:34:46;;;;;;;1999.90;999.90;;;6.80;99.90;;;;;;4978107;28;20035;-95
2021/05/03 03:37:15;;;;;;;1999.90;999.90;;;6.80;99.90;;;;;;4975687;29;20079;-96
2021/05/03 03:39:51;;;;;;;1999.90;999.90;;;6.80;99.90;;;;;;4976620;28;20055;-95
2021/05/03 03:42:24;;;;;;;1999.90;999.90;;;6.80;99.90;;;;;;4977928;29;20066;-96
2021/05/03 03:45:01;;;;;;;1999.90;999.90;;;6.80;99.90;;;;;;4976956;28;20082;-95
2021/05/03 03:47:40;;;;;;;1999.90;999.90;;;6.80;99.90;;;;;;4976850;29;20130;-95
2021/05/03 03:50:14;;;;;;;1999.90;999.90;;;6.90;99.90;;;;;;4977434;28;20062;-96
2021/05/03 04:25:53;;;;;;;1999.90;999.90;;;7.00;99.90;;;;;;4993875;28;20046;-96
2021/05/03 04:40:19;;;;;;;1999.90;999.90;;;6.90;99.90;;;;;;4919970;29;20085;-95
2021/05/03 04:56:32;;;;;;;1999.90;999.90;;;7.10;99.90;;;;;;4998026;28;20098;-96
2021/05/03 04:59:26;;;;;;;1999.90;999.90;;;7.00;99.90;;;;;;4997697;28;20086;-95
2021/05/03 05:02:00;;;;;;;1999.90;999.90;;;7.00;99.90;;;;;;4993828;28;20075;-96
2021/05/03 05:04:35;;;;;;;1999.90;999.90;;;7.10;99.90;;;;;;4982983;28;20042;-95
2021/05/03 05:10:20;;;;;;;1999.90;999.90;;;7.10;99.90;;;;;;4998160;28;20034;-96
2021/05/03 05:13:04;;;;;;;1999.90;999.90;;;7.10;99.90;;;;;;4995890;28;20041;-96
2021/05/03 05:15:54;;;;;;;1999.90;999.90;;;7.10;99.90;;;;;;4997908;28;20057;-96
2021/05/03 05:18:38;;;;;;;1999.90;999.90;;;7.10;99.90;;;;;;4996852;28;20058;-95
2021/05/03 06:20:13;;;;;;;1999.90;999.90;;;7.50;99.90;;;;;;4956864;29;20073;-95
2021/05/03 06:22:40;;;;;;;1999.90;999.90;;;7.60;99.90;;;;;;4960975;29;20414;-94
2021/05/03 06:25:08;;;;;;;1999.90;999.90;;;7.60;99.90;;;;;;4962343;29;20055;-95
2021/05/03 06:27:36;;;;;;;1999.90;999.90;;;7.70;99.90;;;;;;4959800;28;20138;-95
2021/05/03 06:30:04;;;;;;;1999.90;999.90;;;7.70;99.90;;;;;;4959834;29;20517;-95
2021/05/03 06:32:32;;;;;;;1999.90;999.90;;;7.70;99.90;;;;;;4963853;29;20055;-95
2021/05/03 06:34:59;;;;;;;1999.90;999.90;;;7.80;99.90;;;;;;4962880;29;20043;-95
2021/05/03 06:37:28;;;;;;;1999.90;999.90;;;7.80;99.90;;;;;;4962540;28;20075;-95
2021/05/03 06:39:55;;;;;;;1999.90;999.90;;;7.80;99.90;;;;;;4960448;29;20467;-95
2021/05/03 06:42:24;;;;;;;1999.90;999.90;;;7.80;99.90;;;;;;4958639;29;20176;-96
2021/05/03 06:44:51;;;;;;;1999.90;999.90;;;7.80;99.90;;;;;;4960328;29;20500;-95
2021/05/03 06:47:19;;;;;;;1999.90;999.90;;;7.90;99.90;;;;;;4961757;29;20134;-96
2021/05/03 06:49:47;;;;;;;1999.90;999.90;;;7.90;99.90;;;;;;4961138;28;20124;-96
2021/05/03 06:52:16;;;;;;;1999.90;999.90;;;8.00;99.90;;;;;;4959705;28;20079;-96
2021/05/03 06:54:48;;;;;;;1999.90;999.90;;;8.00;99.90;;;;;;4962074;28;20410;-96
2021/05/03 06:57:16;;;;;;;1999.90;999.90;;;8.10;99.90;;;;;;4960679;29;20063;-96
2021/05/03 06:59:44;;;;;;;1999.90;999.90;;;8.10;99.90;;;;;;4959930;28;20487;-96
2021/05/03 07:02:12;;;;;;;1999.90;999.90;;;8.20;99.90;;;;;;4959864;29;20051;-96
2021/05/03 07:04:40;;;;;;;1999.90;999.90;;;8.30;99.90;;;;;;4960920;29;20120;-96
2021/05/03 07:07:08;;;;;;;1999.90;999.90;;;8.30;99.90;;;;;;4961457;29;20065;-95
2021/05/03 07:09:38;;;;;;;1999.90;999.90;;;8.30;99.90;;;;;;4959994;28;20498;-96
2021/05/03 07:12:09;;;;;;;1999.90;999.90;;;8.30;99.90;;;;;;4959231;29;20057;-95
2021/05/03 07:14:37;;;;;;;1999.90;999.90;;;8.40;99.90;;;;;;4958598;28;20058;-96
2021/05/03 07:17:06;;;;;;;1999.90;999.90;;;8.50;99.90;;;;;;4957545;29;20063;-96
2021/05/03 07:19:34;;;;;;;1999.90;999.90;;;8.50;99.90;;;;;;4973408;28;20477;-96
2021/05/03 07:22:02;;;;;;;1999.90;999.90;;;8.60;99.90;;;;;;4979646;28;20055;-96
2021/05/03 07:24:30;;;;;;;1999.90;999.90;;;8.70;99.90;;;;;;4980286;28;20055;-96
2021/05/03 07:26:58;;;;;;;1999.90;999.90;;;8.70;99.90;;;;;;4980416;28;20054;-96
2021/05/03 07:29:26;;;;;;;1999.90;999.90;;;8.80;99.90;;;;;;4978376;28;20058;-96
2021/05/03 07:31:55;;;;;;;1999.90;999.90;;;8.80;99.90;;;;;;4979065;28;20070;-96
2021/05/03 07:34:23;;;;;;;1999.90;999.90;;;9.00;99.90;;;;;;4978899;28;20047;-96
2021/05/03 07:36:53;;;;;;;1999.90;999.90;;;9.00;99.90;;;;;;4979689;28;20054;-96
2021/05/03 07:39:22;;;;;;;1999.90;999.90;;;9.00;99.90;;;;;;4979195;28;20059;-96
2021/05/03 07:41:50;;;;;;;1999.90;999.90;;;9.00;99.90;;;;;;4978743;28;20054;-96
2021/05/03 07:44:21;;;;;;;1999.90;999.90;;;9.10;99.90;;;;;;4979541;28;20393;-96
2021/05/03 07:46:52;;;;;;;1999.90;999.90;;;9.10;99.90;;;;;;4979590;28;20553;-96
2021/05/03 07:49:22;;;;;;;1999.90;999.90;;;9.10;99.90;;;;;;4980936;28;20142;-95
2021/05/03 07:51:51;;;;;;;1999.90;999.90;;;9.20;99.90;;;;;;4978752;28;20469;-96
2021/05/03 07:54:22;;;;;;;1999.90;999.90;;;9.30;99.90;;;;;;4962883;28;20051;-96
2021/05/03 07:56:53;;;;;;;1999.90;999.90;;;9.40;99.90;;;;;;4981073;28;20199;-96
2021/05/03 07:59:21;;;;;;;1999.90;999.90;;;9.50;99.90;;;;;;4982424;28;20455;-96
2021/05/03 08:01:49;;;;;;;1999.90;999.90;;;9.60;99.90;;;;;;4979970;28;20057;-95
2021/05/03 08:04:21;;;;;;;1999.90;999.90;;;9.70;99.90;;;;;;4981349;28;20051;-94
2021/05/03 08:06:52;;;;;;;1999.90;999.90;;;9.70;99.90;;;;;;4981024;28;20055;-96
2021/05/03 08:09:26;;;;;;;1999.90;999.90;;;9.80;99.90;;;;;;4979957;28;20063;-96
2021/05/03 08:11:58;;;;;;;1999.90;999.90;;;9.80;99.90;;;;;;4979929;28;20121;-95
2021/05/03 08:14:26;;;;;;;1999.90;999.90;;;10.00;99.90;;;;;;4980787;28;20098;-96
2021/05/03 08:17:00;;;;;;;1999.90;999.90;;;10.00;99.90;;;;;;4981790;28;20109;-96
2021/05/03 08:19:31;;;;;;;1999.90;999.90;;;10.10;99.90;;;;;;4981699;28;20054;-96
2021/05/03 08:22:02;;;;;;;1999.90;999.90;;;10.20;99.90;;;;;;4983918;28;20082;-95
2021/05/03 08:24:34;;;;;;;1999.90;999.90;;;10.30;99.90;;;;;;4984227;28;20058;-96
2021/05/03 08:27:05;;;;;;;1999.90;999.90;;;10.40;99.90;;;;;;4982622;28;20090;-96
2021/05/03 08:29:42;;;;;;;1999.90;999.90;;;10.50;99.90;;;;;;4985428;28;20057;-96
2021/05/03 08:32:13;;;;;;;1999.90;999.90;;;10.70;99.90;;;;;;4984304;28;20070;-96
2021/05/03 08:34:42;;;;;;;1999.90;999.90;;;10.70;99.90;;;;;;4982415;28;20055;-96
2021/05/03 09:03:44;;;;;;;1999.90;999.90;;;11.30;99.90;;;;;;676024;23;21594;-96
2021/05/03 09:06:19;;;;;;;1999.90;999.90;;;11.30;99.90;;;;;;4960803;29;20055;-92
2021/05/03 09:08:59;;;;;;;1999.90;999.90;;;11.40;99.90;;;;;;4962418;29;20051;-94
2021/05/03 09:11:27;;;;;;;1999.90;999.90;;;11.50;99.90;;;;;;4970058;29;20066;-93
2021/05/03 09:14:13;;;;;;;1999.90;999.90;;;11.70;99.90;;;;;;4952862;29;20098;-93
2021/05/03 09:16:45;;;;;;;1999.90;999.90;;;11.80;99.90;;;;;;4964338;29;20059;-93
2021/05/03 09:19:14;;;;;;;1999.90;999.90;;;11.90;99.90;;;;;;4962694;29;20055;-94
2021/05/03 09:21:42;;;;;;;1999.90;999.90;;;12.00;99.90;;;;;;4970198;29;20042;-93
2021/05/03 09:24:13;;;;;;;1999.90;999.90;;;12.10;99.90;;;;;;4976249;28;20054;-93
2021/05/03 09:26:45;;;;;;;1999.90;999.90;;;12.10;99.90;;;;;;4972578;28;20075;-94
2021/05/03 09:29:42;;;;;;;1999.90;999.90;;;12.20;99.90;;;;;;4973625;28;20050;-93
2021/05/03 09:32:11;;;;;;;1999.90;999.90;;;12.40;99.90;;;;;;4907173;29;20059;-94
2021/05/03 09:34:43;;;;;;;1999.90;999.90;;;12.50;99.90;;;;;;4956733;29;20142;-93
2021/05/03 09:37:25;;;;;;;1999.90;999.90;;;12.40;99.90;;;;;;4945382;29;20071;-93
2021/05/03 09:40:05;;;;;;;1999.90;999.90;;;12.50;99.90;;;;;;4939168;29;20067;-93
2021/05/03 09:42:47;;;;;;;1999.90;999.90;;;12.40;99.90;;;;;;4950949;29;20055;-94
2021/05/03 09:45:17;;;;;;;1999.90;999.90;;;12.70;99.90;;;;;;4950427;29;20048;-93
2021/05/03 09:47:45;;;;;;;1999.90;999.90;;;12.70;99.90;;;;;;4951559;29;20525;-94
2021/05/03 09:50:15;;;;;;;1999.90;999.90;;;12.70;99.90;;;;;;4950548;29;20101;-94
2021/05/03 09:53:02;;;;;;;1999.90;999.90;;;12.80;99.90;;;;;;4943208;29;20058;-94
2021/05/03 09:55:39;;;;;;;1999.90;999.90;;;12.90;99.90;;;;;;4948853;29;20454;-94
2021/05/03 09:58:14;;;;;;;1999.90;999.90;;;13.10;99.90;;;;;;4957771;29;20486;-95
2021/05/03 10:00:45;;;;;;;1999.90;999.90;;;13.20;99.90;;;;;;4957974;29;20062;-94
2021/05/03 10:03:30;;;;;;;1999.90;999.90;;;13.20;99.90;;;;;;4949635;29;20380;-94
2021/05/03 10:06:03;;;;;;;1999.90;999.90;;;13.20;99.90;;;;;;4956307;29;20069;-94
2021/05/03 10:08:34;;;;;;;1999.90;999.90;;;13.30;99.90;;;;;;4957683;29;20118;-95
2021/05/03 10:11:04;;;;;;;1999.90;999.90;;;13.50;99.90;;;;;;4954472;29;20051;-93
2021/05/03 10:13:33;;;;;;;1999.90;999.90;;;13.40;99.90;;;;;;4943779;29;20052;-93
2021/05/03 10:16:01;;;;;;;1999.90;999.90;;;13.50;99.90;;;;;;4948502;29;20062;-94
2021/05/03 10:18:31;;;;;;;1999.90;999.90;;;13.50;99.70;;;;;;4957531;29;20078;-93
2021/05/03 10:20:59;;;;;;;1999.90;999.90;;;13.40;99.60;;;;;;4957510;29;20061;-94
2021/05/03 10:23:29;;;;;;;1999.90;999.90;;;13.40;99.80;;;;;;4956466;29;20124;-94
2021/05/03 10:25:59;;;;;;;1999.90;999.90;;;13.50;99.50;;;;;;4968273;28;20055;-94
2021/05/03 10:28:28;;;;;;;1999.90;999.90;;;13.40;99.50;;;;;;4949561;29;20051;-94
2021/05/03 10:30:57;;;;;;;1999.90;999.90;;;13.30;98.40;;;;;;4955536;29;20082;-93
2021/05/03 10:33:36;;;;;;;1999.90;999.90;;;13.30;98.30;;;;;;4955506;29;20061;-93
2021/05/03 10:36:06;;;;;;;1999.90;999.90;;;13.20;98.20;;;;;;4943094;29;20047;-93
2021/05/03 10:38:38;;;;;;;1999.90;999.90;;;13.10;98.80;;;;;;4945817;29;20063;-94
2021/05/03 10:41:24;;;;;;;1999.90;999.90;;;13.00;98.80;;;;;;4954901;28;20058;-93
2021/05/03 10:43:53;;;;;;;1999.90;999.90;;;12.90;98.50;;;;;;4956578;29;20047;-94
2021/05/03 10:49:43;;;;;;;1999.90;999.90;;;12.80;98.50;;;;;;4956607;29;20078;-94
2021/05/03 10:52:14;;;;;;;1999.90;999.90;;;12.80;99.70;;;;;;4941040;29;20063;-94
2021/05/03 10:54:52;;;;;;;1999.90;999.90;;;12.90;99.90;;;;;;4950213;29;20164;-92
2021/05/03 10:57:35;;;;;;;1999.90;999.90;;;12.90;98.50;;;;;;4945467;29;20058;-93
2021/05/03 11:00:09;;;;;;;1999.90;999.90;;;12.80;97.10;;;;;;4949630;29;20574;-93
2021/05/03 11:02:45;;;;;;;1999.90;999.90;;;12.80;97.40;;;;;;4945433;29;20240;-94
2021/05/03 11:05:15;;;;;;;1999.90;999.90;;;12.80;97.70;;;;;;4948890;29;20054;-95
2021/05/03 11:08:29;;;;;;;1999.90;999.90;;;12.80;97.80;;;;;;4938602;29;20051;-94
2021/05/03 11:11:06;;;;;;;1999.90;999.90;;;12.60;98.20;;;;;;4950220;29;20051;-93
2021/05/03 11:13:57;;;;;;;1999.90;999.90;;;12.40;98.30;;;;;;4950298;29;20051;-94
2021/05/03 11:17:01;;;;;;;1999.90;999.90;;;12.30;98.40;;;;;;4946426;29;20051;-93
2021/05/03 11:19:37;;;;;;;1999.90;999.90;;;12.20;97.90;;;;;;4943559;29;20071;-93
2021/05/03 11:22:05;;;;;;;1999.90;999.90;;;12.10;97.50;;;;;;4956156;29;20059;-93
2021/05/03 11:24:45;;;;;;;1999.90;999.90;;;12.20;97.20;;;;;;4947867;29;20592;-93
2021/05/03 11:27:17;;;;;;;1999.90;999.90;;;12.20;96.50;;;;;;4952947;29;20055;-93
2021/05/03 11:29:49;;;;;;;1999.90;999.90;;;12.30;96.80;;;;;;4956279;29;20059;-93
2021/05/03 11:32:16;;;;;;;1999.90;999.90;;;12.40;97.20;;;;;;4956053;29;20055;-93
2021/05/03 11:34:48;;;;;;;1999.90;999.90;;;12.40;96.60;;;;;;4953852;29;20043;-93
2021/05/03 11:37:18;;;;;;;1999.90;999.90;;;12.50;97.20;;;;;;4956131;29;20059;-93
2021/05/03 11:39:56;;;;;;;1999.90;999.90;;;12.70;97.20;;;;;;4956098;29;20058;-93
2021/05/03 11:45:07;;;;;;;1999.90;999.90;;;13.00;96.20;;;;;;4900344;29;20105;-93
2021/05/03 11:47:38;;;;;;;1999.90;999.90;;;13.10;96.60;;;;;;4946971;29;20059;-93
2021/05/03 11:50:06;;;;;;;1999.90;999.90;;;13.20;97.00;;;;;;4956054;29;20055;-93
2021/05/03 11:52:35;;;;;;;1999.90;999.90;;;13.20;97.10;;;;;;4942402;29;20048;-94
2021/05/03 11:55:07;;;;;;;1999.90;999.90;;;13.30;96.60;;;;;;4957157;29;20047;-94
2021/05/03 11:57:39;;;;;;;1999.90;999.90;;;13.30;94.40;;;;;;4955758;29;20117;-93
2021/05/03 12:00:09;;;;;;;1999.90;999.90;;;13.30;94.90;;;;;;4944415;29;20079;-94
2021/05/03 12:02:37;;;;;;;1999.90;999.90;;;13.40;94.70;;;;;;4959753;29;20051;-93
2021/05/03 12:05:13;;;;;;;1999.90;999.90;;;13.40;95.10;;;;;;4954707;29;20079;-94
2021/05/03 12:07:40;;;;;;;1999.90;999.90;;;13.60;94.20;;;;;;4959264;29;20059;-94
2021/05/03 12:10:32;;;;;;;1999.90;999.90;;;13.70;94.10;;;;;;4949448;29;20058;-96
2021/05/03 12:13:14;;;;;;;1999.90;999.90;;;13.80;94.10;;;;;;4960414;29;20545;-93
2021/05/03 12:15:41;;;;;;;1999.90;999.90;;;14.00;95.00;;;;;;4959686;29;20486;-95
2021/05/03 12:18:08;;;;;;;1999.90;999.90;;;14.10;95.10;;;;;;4959616;29;20110;-93
2021/05/03 12:20:36;;;;;;;1999.90;999.90;;;14.10;94.40;;;;;;4959633;29;20139;-93
2021/05/03 12:23:08;;;;;;;1999.90;999.90;;;14.00;94.60;;;;;;4959096;29;20051;-93
2021/05/03 12:25:39;;;;;;;1999.90;999.90;;;14.00;93.60;;;;;;4955644;29;20054;-93
2021/05/03 12:28:13;;;;;;;1999.90;999.90;;;13.90;93.00;;;;;;4957347;29;20051;-94
2021/05/03 12:30:42;;;;;;;1999.90;999.90;;;13.90;93.30;;;;;;4958943;29;20141;-94
2021/05/03 12:33:10;;;;;;;1999.90;999.90;;;14.00;93.30;;;;;;4958929;29;20059;-93
2021/05/03 12:35:38;;;;;;;1999.90;999.90;;;14.00;93.40;;;;;;4958956;29;20099;-94
2021/05/03 12:38:16;;;;;;;1999.90;999.90;;;14.20;93.20;;;;;;4946900;29;20055;-93
2021/05/03 12:40:43;;;;;;;1999.90;999.90;;;14.30;92.20;;;;;;4958850;28;20396;-93
2021/05/03 12:43:12;;;;;;;1999.90;999.90;;;14.30;92.30;;;;;;4953931;29;20066;-94
2021/05/03 12:45:56;;;;;;;1999.90;999.90;;;14.30;92.30;;;;;;4955936;29;20047;-93
2021/05/03 12:48:31;;;;;;;1999.90;999.90;;;14.20;92.60;;;;;;4945969;29;20106;-93
2021/05/03 12:51:25;;;;;;;1999.90;999.90;;;14.30;93.70;;;;;;4946205;29;20071;-96
2021/05/03 12:54:07;;;;;;;1999.90;999.90;;;14.50;93.70;;;;;;4952259;29;20052;-96
2021/05/03 12:56:57;;;;;;;1999.90;999.90;;;14.60;93.80;;;;;;4952652;29;20162;-96
2021/05/03 12:59:46;;;;;;;;;;;14.90;93.20;;;;;;4950757;29;20059;-96
2021/05/03 13:02:37;;;;;;;1999.90;999.90;;;15.00;93.50;;;;;;4955639;29;19974;-96
2021/05/03 13:08:47;;;;;;;1999.90;999.90;;;14.90;91.10;;;;;;4956204;29;20058;-96
2021/05/03 13:29:52;;;;;;;1999.90;999.90;;;15.30;84.40;;;;;;4951988;29;20055;-96
2021/05/03 13:32:54;;;;;;;;;;;;;;;;;;;;;
2021/05/03 13:35:26;;;;;;;1999.90;999.90;;;15.40;86.80;;;;;;4951346;29;20048;-96
2021/05/03 13:38:02;;;;;;;1999.90;999.90;;;15.40;84.50;;;;;;4950343;29;20051;-96
2021/05/03 13:40:41;;;;;;;1999.90;999.90;;;15.40;83.40;;;;;;4951173;29;20040;-96
2021/05/03 13:43:11;;;;;;;1999.90;999.90;;;15.40;84.70;;;;;;4951635;29;20051;-96
2021/05/03 13:45:39;;;;;;;1999.90;999.90;;;15.40;84.00;;;;;;4946192;29;20058;-96
2021/05/03 13:51:27;;;;;;;1999.90;999.90;;;15.40;82.80;;;;;;4894150;29;20056;-96
2021/05/03 13:54:26;;;;;;;1999.90;999.90;;;15.30;79.60;;;;;;4949879;29;20533;-96
2021/05/03 13:59:52;;;;;;;1999.90;999.90;;;15.60;84.50;;;;;;4953767;29;20051;-96
2021/05/03 14:03:19;;;;;;;1999.90;999.90;;;15.50;83.10;;;;;;4953458;29;20087;-96
2021/05/03 14:06:17;;;;;;;1999.90;999.90;;;15.50;85.40;;;;;;4922706;29;20056;-96
2021/05/03 14:08:49;;;;;;;1999.90;999.90;;;15.20;85.70;;;;;;4934867;29;20064;-96
2021/05/03 14:11:33;;;;;;;1999.90;999.90;;;15.20;84.10;;;;;;4936941;29;20088;-96
2021/05/03 14:14:15;;;;;;;;;;;15.00;84.00;;;;;;4935316;29;20047;-96
2021/05/03 14:16:55;;;;;;;1999.90;999.90;;;15.00;87.10;;;;;;4935700;29;20441;-96
2021/05/03 14:19:57;;;;;;;1999.90;999.90;;;15.10;86.70;;;;;;4937867;29;20067;-96
2021/05/03 14:29:46;;;;;;;1999.90;999.90;;;15.10;86.30;;;;;;5393708;23;20066;-96
2021/05/03 14:32:19;;;;;;;1999.90;999.90;;;15.00;85.20;;;;;;5007869;28;20062;-96
2021/05/03 14:34:52;;;;;;;1999.90;999.90;;;14.90;84.20;;;;;;5005767;28;20050;-95
2021/05/03 14:37:22;;;;;;;1999.90;999.90;;;14.70;84.10;;;;;;5008454;28;20054;-96
2021/05/03 14:39:53;;;;;;;1999.90;999.90;;;14.70;84.00;;;;;;5005984;28;20109;-96
2021/05/03 14:42:21;;;;;;;1999.90;999.90;;;14.60;84.00;;;;;;5005874;28;20054;-96
2021/05/03 14:44:49;;;;;;;1999.90;999.90;;;14.50;83.00;;;;;;5006596;28;20057;-96
2021/05/03 14:47:23;;;;;;;1999.90;999.90;;;14.50;83.60;;;;;;5006019;28;20054;-96
2021/05/03 14:49:55;;;;;;;1999.90;999.90;;;14.30;83.20;;;;;;5006391;28;20414;-95
2021/05/03 14:52:25;;;;;;;1999.90;999.90;;;14.20;84.30;;;;;;5002959;28;20050;-96
2021/05/03 14:54:54;;;;;;;1999.90;999.90;;;14.20;86.40;;;;;;5001413;28;20062;-96
2021/05/03 14:57:23;;;;;;;1999.90;999.90;;;14.20;85.50;;;;;;5002925;28;20050;-96
2021/05/03 14:59:51;;;;;;;1999.90;999.90;;;14.20;85.40;;;;;;5002459;28;20425;-96
2021/05/03 15:02:19;;;;;;;1999.90;999.90;;;14.20;84.20;;;;;;5002423;28;20085;-96
2021/05/03 15:04:47;;;;;;;1999.90;999.90;;;14.10;83.10;;;;;;5000755;28;20454;-96
2021/05/03 15:07:18;;;;;;;1999.90;999.90;;;14.00;85.10;;;;;;5001379;28;20113;-96
2021/05/03 15:09:48;;;;;;;1999.90;999.90;;;14.00;84.40;;;;;;5002185;28;20109;-96
2021/05/03 15:12:19;;;;;;;1999.90;999.90;;;14.00;84.80;;;;;;5002057;28;20054;-96
2021/05/03 15:14:59;;;;;;;1999.90;999.90;;;14.00;86.00;;;;;;5002930;28;20050;-96
2021/05/03 15:20:25;;;;;;;1999.90;999.90;;;14.10;85.10;;;;;;5002517;28;20110;-95
2021/05/03 15:22:52;;;;;;;1999.90;999.90;;;14.20;83.70;;;;;;4998550;28;20054;-94
2021/05/03 15:25:20;;;;;;;1999.90;999.90;;;14.20;83.10;;;;;;4998622;28;20046;-95
2021/05/03 15:27:54;;;;;;;1999.90;999.90;;;14.30;83.10;;;;;;5003442;28;20050;-95
2021/05/03 15:30:31;;;;;;;1999.90;999.90;;;14.20;81.10;;;;;;5003012;28;20051;-95
2021/05/03 15:35:41;;;;;;;1999.90;999.90;;;14.30;85.20;;;;;;5000322;28;20046;-96
2021/05/03 15:38:08;;;;;;;1999.90;999.90;;;14.50;84.60;;;;;;5000008;28;20050;-92
2021/05/03 15:40:36;;;;;;;1999.90;999.90;;;14.50;83.80;;;;;;4998551;28;20062;-92
2021/05/03 15:43:03;;;;;;;1999.90;999.90;;;14.50;82.00;;;;;;4995900;28;20105;-91
2021/05/03 15:45:30;;;;;;;1999.90;999.90;;;14.50;83.50;;;;;;4989020;28;20078;-91
2021/05/03 15:47:59;;;;;;;1999.90;999.90;;;14.50;81.90;;;;;;4989470;28;20047;-92
2021/05/03 15:50:26;;;;;;;1999.90;999.90;;;14.50;81.30;;;;;;4998225;28;20050;-91
2021/05/03 15:52:54;;;;;;;1999.90;999.90;;;14.50;79.80;;;;;;4997353;28;20074;-92
2021/05/03 15:55:21;;;;;;;1999.90;999.90;;;14.50;79.70;;;;;;4984587;28;20043;-92
2021/05/03 15:57:51;;;;;;;1999.90;999.90;;;14.50;80.20;;;;;;4993720;28;20050;-92
2021/05/03 16:00:20;;;;;;;1999.90;999.90;;;14.60;78.50;;;;;;4997763;28;20580;-93
2021/05/03 16:02:47;;;;;;;1999.90;999.90;;;14.60;79.10;;;;;;4995097;28;20054;-93
2021/05/03 16:05:15;;;;;;;1999.90;999.90;;;14.60;76.60;;;;;;4997867;28;20073;-92
2021/05/03 16:07:42;;;;;;;1999.90;999.90;;;14.70;76.60;;;;;;4997909;28;20108;-93
2021/05/03 16:10:10;;;;;;;1999.90;999.90;;;14.80;75.90;;;;;;4997513;28;20054;-92